createdAt,value
2018-04-23T00:00:15.285Z,15.37
2018-04-23T00:02:45.133Z,11.83
2018-04-23T00:05:14.616Z,10.50
2018-04-23T00:07:44.078Z,10.23
2018-04-23T00:10:13.534Z,10.80
2018-04-23T00:12:43.007Z,10.80
2018-04-23T00:15:13.382Z,10.30
2018-04-23T00:17:42.849Z,12.87
2018-04-23T00:20:12.697Z,11.60
2018-04-23T00:22:42.153Z,10.70
2018-04-23T00:25:11.326Z,10.20
2018-04-23T00:27:40.821Z,10.90
2018-04-23T00:30:10.264Z,11.10
2018-04-23T00:32:39.770Z,11.27
2018-04-23T00:35:09.692Z,13.17
2018-04-23T00:37:39.164Z,11.43
2018-04-23T00:40:08.317Z,12.40
2018-04-23T00:42:37.808Z,9.80
2018-04-23T00:45:07.246Z,14.13
2018-04-23T00:47:36.731Z,12.10
2018-04-23T00:50:06.181Z,14.13
2018-04-23T00:52:35.633Z,13.33
2018-04-23T00:55:05.502Z,14.37
2018-04-23T00:57:34.997Z,15.17
2018-04-23T01:00:03.774Z,16.03
2018-04-23T01:02:32.641Z,17.20
2018-04-23T01:05:02.105Z,18.57
2018-04-23T01:07:31.585Z,18.27
2018-04-23T01:10:01.035Z,19.23
2018-04-23T01:12:30.494Z,17.30
2018-04-23T01:14:59.958Z,20.50
2018-04-23T01:17:29.437Z,21.60
2018-04-23T01:19:58.887Z,16.07
2018-04-23T01:22:28.357Z,18.57
2018-04-23T01:24:58.221Z,18.73
2018-04-23T01:27:27.720Z,18.10
2018-04-23T01:29:57.183Z,18.80
2018-04-23T01:32:26.671Z,20.70
2018-04-23T01:34:56.168Z,22.30
2018-04-23T01:37:26.011Z,18.20
2018-04-23T01:39:55.470Z,20.37
2018-04-23T01:42:24.949Z,19.90
2018-04-23T01:44:54.405Z,21.13
2018-04-23T01:47:23.865Z,18.43
2018-04-23T01:49:53.746Z,17.50
2018-04-23T01:52:23.220Z,18.63
2018-04-23T01:54:53.084Z,19.23
2018-04-23T01:57:22.597Z,18.23
2018-04-23T01:59:52.218Z,18.20
2018-04-23T02:02:21.713Z,17.43
2018-04-23T02:04:51.398Z,16.90
2018-04-23T02:07:20.877Z,16.80
2018-04-23T02:09:50.326Z,19.63
2018-04-23T02:12:19.777Z,16.23
2018-04-23T02:14:49.265Z,15.50
2018-04-23T02:17:18.721Z,18.90
2018-04-23T02:19:48.173Z,22.03
2018-04-23T02:22:17.659Z,16.87
2018-04-23T02:24:48.052Z,21.20
2018-04-23T02:27:17.547Z,20.27
2018-04-23T02:29:47.392Z,13.33
2018-04-23T02:32:16.889Z,22.07
2018-04-23T02:34:46.358Z,23.43
2018-04-23T02:37:15.558Z,23.70
2018-04-23T02:39:45.034Z,24.17
2018-04-23T02:42:14.501Z,23.83
2018-04-23T02:44:43.989Z,23.23
2018-04-23T02:47:13.850Z,24.63
2018-04-23T02:49:43.301Z,27.53
2018-04-23T02:52:12.765Z,25.57
2018-04-23T02:54:42.641Z,25.87
2018-04-23T02:57:12.126Z,25.10
2018-04-23T02:59:41.608Z,26.37
2018-04-23T03:02:11.045Z,23.00
2018-04-23T03:04:40.912Z,27.53
2018-04-23T03:07:10.397Z,23.30
2018-04-23T03:09:40.298Z,27.57
2018-04-23T03:12:09.749Z,26.13
2018-04-23T03:14:38.959Z,26.00
2018-04-23T03:17:08.412Z,38.73
2018-04-23T03:19:37.900Z,19.27
2018-04-23T03:22:07.765Z,26.43
2018-04-23T03:24:37.234Z,29.23
2018-04-23T03:27:06.707Z,27.27
2018-04-23T03:29:36.210Z,26.87
2018-04-23T03:32:05.712Z,22.83
2018-04-23T03:34:35.593Z,27.47
2018-04-23T03:37:05.111Z,25.30
2018-04-23T03:39:35.123Z,21.80
2018-04-23T03:42:04.573Z,29.77
2018-04-23T03:44:34.062Z,21.10
2018-04-23T03:47:03.523Z,21.77
2018-04-23T03:49:33.011Z,20.50
2018-04-23T03:52:02.484Z,20.00
2018-04-23T03:54:31.924Z,13.37
2018-04-23T03:57:01.381Z,20.40
2018-04-23T03:59:30.854Z,23.40
2018-04-23T04:02:00.037Z,13.47
2018-04-23T04:04:29.497Z,17.80
2018-04-23T04:06:58.972Z,14.23
2018-04-23T04:09:28.657Z,13.10
2018-04-23T04:11:57.490Z,17.30
2018-04-23T04:14:37.926Z,14.17
2018-04-23T04:17:06.910Z,14.57
2018-04-23T04:19:36.114Z,12.90
2018-04-23T04:22:05.594Z,16.20
2018-04-23T04:24:35.045Z,13.67
2018-04-23T04:27:04.521Z,15.80
2018-04-23T04:29:33.978Z,14.33
2018-04-23T04:32:03.563Z,14.40
2018-04-23T04:34:33.049Z,12.73
2018-04-23T04:37:02.579Z,12.60
2018-04-23T04:39:33.647Z,13.37
2018-04-23T04:42:03.137Z,12.30
2018-04-23T04:44:32.588Z,11.17
2018-04-23T04:47:02.064Z,12.03
2018-04-23T04:49:31.319Z,10.17
2018-04-23T04:52:02.081Z,12.53
2018-04-23T04:54:31.576Z,13.47
2018-04-23T04:57:01.468Z,14.43
2018-04-23T04:59:30.962Z,12.63
2018-04-23T05:02:00.431Z,10.67
2018-04-23T05:04:29.881Z,9.67
2018-04-23T05:06:59.377Z,10.57
2018-04-23T05:09:28.865Z,11.43
2018-04-23T05:11:58.319Z,10.80
2018-04-23T05:14:27.790Z,11.90
2018-04-23T05:16:57.264Z,10.40
2018-04-23T05:19:26.484Z,11.77
2018-04-23T05:21:56.345Z,10.50
2018-04-23T05:24:25.829Z,7.80
2018-04-23T05:26:55.267Z,9.20
2018-04-23T05:29:24.828Z,10.73
2018-04-23T05:31:55.208Z,10.53
2018-04-23T05:34:25.086Z,9.47
2018-04-23T05:36:54.542Z,9.10
2018-04-23T05:39:24.028Z,8.33
2018-04-23T05:41:53.511Z,8.50
2018-04-23T05:44:23.360Z,8.60
2018-04-23T05:46:52.798Z,6.90
2018-04-23T05:49:22.319Z,7.33
2018-04-23T05:51:51.762Z,10.30
2018-04-23T05:54:21.233Z,9.00
2018-04-23T05:56:50.690Z,9.47
2018-04-23T05:59:20.141Z,10.07
2018-04-23T06:01:49.855Z,10.47
2018-04-23T06:04:19.319Z,9.87
2018-04-23T06:06:49.384Z,9.10
2018-04-23T06:09:18.936Z,7.00
2018-04-23T06:11:48.373Z,7.27
2018-04-23T06:14:18.288Z,8.67
2018-04-23T06:16:47.936Z,8.30
2018-04-23T06:19:17.777Z,8.97
2018-04-23T06:21:47.255Z,8.13
2018-04-23T06:24:16.831Z,8.10
2018-04-23T06:26:46.282Z,9.20
2018-04-23T06:29:15.747Z,9.37
2018-04-23T06:31:45.610Z,10.70
2018-04-23T06:34:15.416Z,7.83
2018-04-23T06:36:45.040Z,8.43
2018-04-23T06:39:14.473Z,8.63
2018-04-23T06:41:43.919Z,7.23
2018-04-23T06:44:13.522Z,10.20
2018-04-23T06:46:43.003Z,9.43
2018-04-23T06:49:12.469Z,9.10
2018-04-23T06:51:41.957Z,10.30
2018-04-23T06:54:11.508Z,8.30
2018-04-23T06:56:40.741Z,10.00
2018-04-23T06:59:09.997Z,7.60
2018-04-23T07:01:39.832Z,9.70
2018-04-23T07:04:09.682Z,9.43
2018-04-23T07:06:39.122Z,10.17
2018-04-23T07:09:08.618Z,10.47
2018-04-23T07:11:38.122Z,9.40
2018-04-23T07:14:07.980Z,10.90
2018-04-23T07:16:37.561Z,11.20
2018-04-23T07:19:07.154Z,10.53
2018-04-23T07:21:36.610Z,10.80
2018-04-23T07:24:06.489Z,10.07
2018-04-23T07:26:35.940Z,10.37
2018-04-23T07:29:06.349Z,10.27
2018-04-23T07:31:35.817Z,12.27
2018-04-23T07:34:05.676Z,9.63
2018-04-23T07:36:35.124Z,11.37
2018-04-23T07:39:03.705Z,10.63
2018-04-23T07:41:33.153Z,11.97
2018-04-23T07:44:02.606Z,11.27
2018-04-23T07:46:32.464Z,11.70
2018-04-23T07:49:01.905Z,11.57
2018-04-23T07:51:31.389Z,12.60
2018-04-23T07:54:01.047Z,13.13
2018-04-23T07:56:30.532Z,12.00
2018-04-23T07:59:00.377Z,12.17
2018-04-23T08:01:29.866Z,13.77
2018-04-23T08:03:59.045Z,12.90
2018-04-23T08:06:28.529Z,11.40
2018-04-23T08:08:59.266Z,13.60
2018-04-23T08:11:28.745Z,14.17
2018-04-23T08:13:58.260Z,13.90
2018-04-23T08:16:27.699Z,13.73
2018-04-23T08:18:57.163Z,14.60
2018-04-23T08:21:26.641Z,15.63
2018-04-23T08:23:55.806Z,14.60
2018-04-23T08:26:25.282Z,14.00
2018-04-23T08:28:55.021Z,13.37
2018-04-23T08:31:24.881Z,14.60
2018-04-23T08:33:55.353Z,14.87
2018-04-23T08:36:24.833Z,14.43
2018-04-23T08:38:54.298Z,15.83
2018-04-23T08:41:23.749Z,11.90
2018-04-23T08:43:53.679Z,14.43
2018-04-23T08:46:23.301Z,15.30
2018-04-23T08:48:53.197Z,11.60
2018-04-23T08:51:22.827Z,13.70
2018-04-23T08:53:52.297Z,15.90
2018-04-23T08:56:21.774Z,15.60
2018-04-23T08:58:51.242Z,15.67
2018-04-23T09:01:20.721Z,16.10
2018-04-23T09:03:50.174Z,15.40
2018-04-23T09:06:19.641Z,14.60
2018-04-23T09:08:49.125Z,13.70
2018-04-23T09:11:18.611Z,15.57
2018-04-23T09:13:48.070Z,16.47
2018-04-23T09:16:17.532Z,15.10
2018-04-23T09:18:46.364Z,16.37
2018-04-23T09:21:16.210Z,15.40
2018-04-23T09:23:45.688Z,17.30
2018-04-23T09:26:15.138Z,14.67
2018-04-23T09:28:44.988Z,17.17
2018-04-23T09:31:14.463Z,17.50
2018-04-23T09:33:43.941Z,17.73
2018-04-23T09:36:13.400Z,18.07
2018-04-23T09:38:42.841Z,19.07
2018-04-23T09:41:12.696Z,20.13
2018-04-23T09:43:42.146Z,17.10
2018-04-23T09:46:11.608Z,18.17
2018-04-23T09:48:41.468Z,17.53
2018-04-23T09:51:10.975Z,18.20
2018-04-23T09:53:40.849Z,18.63
2018-04-23T09:56:10.365Z,16.90
2018-04-23T09:58:39.598Z,17.70
2018-04-23T10:01:14.745Z,18.63
2018-04-23T10:03:43.977Z,16.03
2018-04-23T10:06:14.346Z,16.13
2018-04-23T10:08:43.830Z,16.17
2018-04-23T10:11:13.312Z,17.10
2018-04-23T10:13:42.765Z,15.30
2018-04-23T10:16:12.250Z,17.00
2018-04-23T10:18:41.442Z,15.87
2018-04-23T10:21:10.927Z,15.30
2018-04-23T10:23:40.151Z,14.70
2018-04-23T10:26:09.285Z,15.13
2018-04-23T10:28:39.136Z,13.13
2018-04-23T10:31:08.381Z,14.33
2018-04-23T10:33:37.868Z,14.27
2018-04-23T10:36:07.326Z,12.97
2018-04-23T10:38:36.815Z,12.80
2018-04-23T10:41:06.257Z,14.50
2018-04-23T10:43:35.753Z,12.60
2018-04-23T10:46:05.209Z,13.50
2018-04-23T10:48:34.661Z,12.97
2018-04-23T10:51:04.184Z,12.97
2018-04-23T10:53:34.299Z,11.80
2018-04-23T10:56:05.722Z,11.57
2018-04-23T10:58:35.200Z,12.03
2018-04-23T11:01:05.088Z,11.53
2018-04-23T11:03:34.547Z,11.33
2018-04-23T11:06:03.729Z,11.30
2018-04-23T11:08:33.252Z,9.70
2018-04-23T11:11:02.717Z,9.60
2018-04-23T11:13:32.606Z,10.70
2018-04-23T11:16:02.076Z,9.83
2018-04-23T11:18:31.564Z,11.60
2018-04-23T11:21:01.236Z,8.70
2018-04-23T11:23:30.704Z,9.53
2018-04-23T11:26:00.117Z,7.90
2018-04-23T11:28:29.588Z,7.97
2018-04-23T11:30:59.049Z,9.17
2018-04-23T11:33:28.509Z,9.90
2018-04-23T11:35:58.365Z,9.23
2018-04-23T11:38:27.822Z,8.53
2018-04-23T11:40:57.260Z,9.60
2018-04-23T11:43:26.699Z,8.73
2018-04-23T11:45:56.549Z,9.97
2018-04-23T11:48:26.030Z,9.80
2018-04-23T11:50:55.522Z,11.77
2018-04-23T11:53:25.166Z,10.33
2018-04-23T11:55:54.623Z,9.10
2018-04-23T11:58:24.084Z,8.70
2018-04-23T12:00:53.268Z,7.43
2018-04-23T12:03:22.765Z,10.03
2018-04-23T12:05:52.617Z,8.57
2018-04-23T12:08:22.080Z,6.60
2018-04-23T12:10:51.390Z,10.53
2018-04-23T12:13:21.410Z,9.83
2018-04-23T12:15:50.854Z,9.03
2018-04-23T12:18:20.300Z,9.00
2018-04-23T12:20:50.153Z,8.33
2018-04-23T12:23:19.582Z,7.77
2018-04-23T12:25:49.109Z,7.73
2018-04-23T12:28:18.558Z,6.00
2018-04-23T12:30:48.031Z,7.80
2018-04-23T12:33:17.479Z,6.80
2018-04-23T12:35:46.959Z,6.03
2018-04-23T12:38:16.827Z,7.03
2018-04-23T12:40:46.301Z,7.10
2018-04-23T12:43:15.774Z,7.53
2018-04-23T12:45:45.265Z,5.40
2018-04-23T12:48:14.725Z,5.60
2018-04-23T12:50:44.178Z,5.97
2018-04-23T12:53:13.622Z,6.17
2018-04-23T12:55:43.095Z,6.00
2018-04-23T12:58:12.537Z,5.13
2018-04-23T13:00:42.382Z,5.53
2018-04-23T13:03:12.226Z,4.83
2018-04-23T13:05:41.699Z,7.00
2018-04-23T13:08:11.163Z,6.30
2018-04-23T13:10:41.345Z,6.47
2018-04-23T13:13:10.785Z,7.07
2018-04-23T13:15:40.274Z,8.13
2018-04-23T13:18:09.707Z,6.37
2018-04-23T13:20:39.201Z,7.20
2018-04-23T13:23:08.414Z,7.87
2018-04-23T13:25:38.881Z,5.43
2018-04-23T13:28:08.324Z,6.50
2018-04-23T13:30:37.777Z,6.80
2018-04-23T13:33:07.262Z,6.50
2018-04-23T13:35:36.718Z,6.10
2018-04-23T13:38:06.153Z,7.83
2018-04-23T13:40:35.613Z,7.33
2018-04-23T13:43:05.065Z,6.00
2018-04-23T13:45:34.933Z,5.27
2018-04-23T13:48:04.385Z,5.73
2018-04-23T13:50:33.842Z,5.17
2018-04-23T13:53:03.309Z,5.80
2018-04-23T13:55:32.512Z,6.30
2018-04-23T13:58:02.177Z,5.50
2018-04-23T14:00:32.049Z,4.30
2018-04-23T14:03:01.531Z,3.57
2018-04-23T14:05:31.398Z,3.83
2018-04-23T14:08:00.854Z,4.23
2018-04-23T14:10:30.332Z,4.30
2018-04-23T14:12:59.797Z,4.70
2018-04-23T14:15:29.255Z,3.80
2018-04-23T14:17:58.697Z,3.70
2018-04-23T14:20:28.155Z,5.57
2018-04-23T14:22:58.565Z,4.83
2018-04-23T14:25:28.037Z,4.73
2018-04-23T14:27:57.659Z,3.50
2018-04-23T14:30:27.126Z,4.30
2018-04-23T14:32:57.296Z,3.50
2018-04-23T14:35:26.522Z,4.17
2018-04-23T14:37:56.000Z,5.47
2018-04-23T14:40:25.458Z,3.83
2018-04-23T14:42:55.044Z,3.57
2018-04-23T14:45:24.529Z,3.30
2018-04-23T14:47:54.177Z,4.30
2018-04-23T14:50:23.623Z,3.70
2018-04-23T14:52:53.088Z,2.90
2018-04-23T14:55:22.253Z,2.40
2018-04-23T14:57:51.765Z,3.40
2018-04-23T15:00:21.313Z,3.73
2018-04-23T15:02:50.790Z,3.87
2018-04-23T15:05:20.254Z,5.00
2018-04-23T15:07:49.768Z,5.07
2018-04-23T15:10:20.032Z,5.10
2018-04-23T15:12:49.514Z,5.13
2018-04-23T15:15:18.966Z,5.27
2018-04-23T15:17:48.495Z,6.33
2018-04-23T15:20:20.683Z,5.37
2018-04-23T15:22:50.178Z,6.27
2018-04-23T15:25:19.647Z,6.20
2018-04-23T15:27:49.486Z,5.43
2018-04-23T15:30:18.961Z,6.23
2018-04-23T15:32:48.405Z,5.73
2018-04-23T15:35:18.286Z,7.33
2018-04-23T15:37:47.772Z,5.60
2018-04-23T15:40:17.214Z,7.00
2018-04-23T15:42:46.645Z,7.37
2018-04-23T15:45:15.862Z,6.43
2018-04-23T15:47:45.324Z,7.57
2018-04-23T15:50:15.189Z,7.40
2018-04-23T15:52:44.362Z,6.93
2018-04-23T15:55:14.245Z,7.23
2018-04-23T15:57:43.719Z,7.33
2018-04-23T16:00:13.175Z,5.97
2018-04-23T16:02:42.643Z,7.70
2018-04-23T16:05:12.089Z,7.07
2018-04-23T16:07:41.537Z,6.30
2018-04-23T16:10:11.002Z,5.50
2018-04-23T16:12:40.484Z,5.40
2018-04-23T16:15:09.943Z,6.40
2018-04-23T16:17:39.400Z,6.67
2018-04-23T16:20:08.846Z,5.50
2018-04-23T16:22:38.302Z,7.20
2018-04-23T16:25:07.759Z,6.20
2018-04-23T16:27:36.962Z,5.83
2018-04-23T16:30:06.468Z,4.53
2018-04-23T16:32:36.080Z,6.00
2018-04-23T16:35:05.676Z,6.23
2018-04-23T16:37:35.488Z,6.00
2018-04-23T16:40:05.373Z,6.20
2018-04-23T16:42:35.257Z,5.60
2018-04-23T16:45:04.113Z,6.30
2018-04-23T16:47:33.993Z,5.20
2018-04-23T16:50:04.521Z,4.97
2018-04-23T16:52:34.609Z,5.70
2018-04-23T16:55:04.471Z,5.37
2018-04-23T16:57:34.406Z,4.90
2018-04-23T17:00:03.529Z,5.73
2018-04-23T17:02:33.182Z,5.90
2018-04-23T17:05:02.789Z,5.73
2018-04-23T17:07:32.439Z,6.33
2018-04-23T17:10:01.902Z,5.43
2018-04-23T17:12:31.555Z,6.20
2018-04-23T17:15:01.005Z,7.03
2018-04-23T17:17:30.460Z,5.87
2018-04-23T17:20:00.325Z,6.47
2018-04-23T17:22:29.796Z,4.87
2018-04-23T17:24:59.439Z,6.93
2018-04-23T17:27:29.630Z,5.90
2018-04-23T17:29:59.062Z,5.53
2018-04-23T17:32:28.602Z,5.87
2018-04-23T17:34:59.416Z,5.80
2018-04-23T17:37:31.068Z,4.70
2018-04-23T17:40:00.231Z,6.50
2018-04-23T17:42:29.835Z,5.63
2018-04-23T17:44:59.438Z,7.80
2018-04-23T17:47:29.054Z,6.00
2018-04-23T17:49:58.219Z,6.00
2018-04-23T17:52:28.054Z,5.37
2018-04-23T17:54:57.248Z,5.90
2018-04-23T17:57:26.422Z,4.90
2018-04-23T17:59:56.594Z,6.20
2018-04-23T18:02:26.253Z,5.17
2018-04-23T18:04:55.424Z,5.20
2018-04-23T18:07:25.027Z,4.70
2018-04-23T18:09:54.501Z,5.00
2018-04-23T18:12:26.296Z,5.40
2018-04-23T18:14:55.439Z,4.50
2018-04-23T18:17:24.622Z,4.30
2018-04-23T18:19:53.811Z,4.40
2018-04-23T18:22:23.651Z,4.27
2018-04-23T18:24:52.861Z,4.50
2018-04-23T18:27:23.040Z,4.57
2018-04-23T18:29:52.801Z,4.83
2018-04-23T18:32:22.173Z,5.00
